Time;durP1;ratioP1;P1;durP2;ratioP2;P2;SDS_P1;SDS_P2;PMS_P1;PMS_P2;Temp;Humidity;BMP_temperature;BMP_pressure;BME280_temperature;BME280_humidity;BME280_pressure;Samples;Min_cycle;Max_cycle;Signal;HPM_P1;HPM_P2
2023/02/20 00:00:46;;;;;;;4.47;1.95;;;;;;;;;;5013803;28;20392;-55
2023/02/20 00:03:15;;;;;;;5.38;1.98;;;;;;;;;;5043500;28;20052;-58
2023/02/20 00:05:42;;;;;;;4.78;2.15;;;;;;;;;;5033750;28;20076;-57
2023/02/20 00:08:09;;;;;;;4.38;2.05;;;;;;;;;;5033333;28;20053;-56
2023/02/20 00:10:36;;;;;;;8.48;3.25;;;;;;;;;;5033323;28;20453;-56
2023/02/20 00:13:03;;;;;;;6.70;2.58;;;;;;;;;;5033196;28;20050;-56
2023/02/20 00:15:31;;;;;;;5.93;2.20;;;;;;;;;;5033154;28;20046;-55
2023/02/20 00:17:58;;;;;;;5.40;2.30;;;;;;;;;;5033014;28;20095;-54
2023/02/20 00:20:26;;;;;;;6.55;2.47;;;;;;;;;;5033021;28;20494;-51
2023/02/20 00:22:55;;;;;;;6.05;2.35;;;;;;;;;;5032422;28;20574;-55
2023/02/20 00:25:22;;;;;;;6.68;2.40;;;;;;;;;;5032993;28;20053;-54
2023/02/20 00:27:49;;;;;;;6.10;2.25;;;;;;;;;;5032792;28;20053;-53
2023/02/20 00:30:18;;;;;;;7.07;2.67;;;;;;;;;;5033091;28;20175;-56
2023/02/20 00:32:48;;;;;;;5.38;2.30;;;;;;;;;;5032798;28;20465;-56
2023/02/20 00:35:15;;;;;;;4.80;2.35;;;;;;;;;;5032944;28;20045;-54
2023/02/20 00:37:42;;;;;;;5.43;2.53;;;;;;;;;;5032607;28;20061;-57
2023/02/20 00:40:10;;;;;;;4.88;2.20;;;;;;;;;;5032661;28;20064;-55
2023/02/20 00:42:38;;;;;;;5.70;2.22;;;;;;;;;;5032481;28;20041;-55
2023/02/20 00:45:05;;;;;;;4.60;2.13;;;;;;;;;;5044096;28;20127;-56
2023/02/20 00:47:32;;;;;;;6.15;2.30;;;;;;;;;;5052420;28;20040;-55
2023/02/20 00:50:01;;;;;;;4.95;2.92;;;;;;;;;;5052463;28;20049;-53
2023/02/20 00:52:27;;;;;;;4.38;1.98;;;;;;;;;;5052530;28;20048;-56
2023/02/20 00:54:54;;;;;;;4.57;1.95;;;;;;;;;;5052325;28;20400;-54
2023/02/20 00:57:21;;;;;;;5.30;2.25;;;;;;;;;;5052382;28;20045;-57
2023/02/20 00:59:48;;;;;;;6.20;2.75;;;;;;;;;;5044623;28;20045;-53
2023/02/20 01:02:16;;;;;;;5.15;2.28;;;;;;;;;;5032515;28;20498;-53
2023/02/20 01:04:43;;;;;;;7.97;2.60;;;;;;;;;;5032321;28;20136;-53
2023/02/20 01:07:11;;;;;;;5.55;2.50;;;;;;;;;;5032373;28;20052;-55
2023/02/20 01:09:38;;;;;;;4.60;2.08;;;;;;;;;;5032593;28;20056;-58
2023/02/20 01:12:06;;;;;;;5.13;2.13;;;;;;;;;;5032144;28;20494;-53
2023/02/20 01:14:33;;;;;;;7.68;2.22;;;;;;;;;;5032091;28;20096;-53
2023/02/20 01:17:01;;;;;;;6.60;2.40;;;;;;;;;;5032053;28;20080;-56
2023/02/20 01:19:28;;;;;;;4.97;2.05;;;;;;;;;;5043514;28;20056;-57
2023/02/20 01:21:55;;;;;;;5.75;1.98;;;;;;;;;;5051849;28;20057;-56
2023/02/20 01:24:23;;;;;;;5.63;2.60;;;;;;;;;;5052073;28;20048;-53
2023/02/20 01:26:50;;;;;;;5.15;2.10;;;;;;;;;;5051934;28;20049;-56
2023/02/20 01:29:18;;;;;;;5.95;2.35;;;;;;;;;;5051999;28;20512;-58
2023/02/20 01:31:48;;;;;;;6.32;2.45;;;;;;;;;;5051715;28;20052;-57
2023/02/20 01:34:15;;;;;;;4.32;2.08;;;;;;;;;;5053802;28;20053;-57
2023/02/20 01:36:46;;;;;;;5.40;2.35;;;;;;;;;;5055877;28;20056;-55
2023/02/20 01:39:13;;;;;;;5.88;2.40;;;;;;;;;;5052498;28;20041;-55
2023/02/20 01:41:41;;;;;;;5.90;2.28;;;;;;;;;;5035777;28;20095;-53
2023/02/20 01:44:18;;;;;;;8.20;2.50;;;;;;;;;;5035920;28;20052;-56
2023/02/20 01:46:50;;;;;;;5.85;2.20;;;;;;;;;;5035653;28;20128;-52
2023/02/20 01:49:22;;;;;;;5.38;3.08;;;;;;;;;;5035663;28;20065;-53
2023/02/20 01:51:52;;;;;;;6.53;2.17;;;;;;;;;;5055493;28;20490;-57
2023/02/20 01:54:23;;;;;;;4.77;2.03;;;;;;;;;;5049951;28;20045;-58
2023/02/20 01:56:53;;;;;;;4.82;2.55;;;;;;;;;;5035640;28;20266;-54
2023/02/20 01:59:21;;;;;;;7.07;2.50;;;;;;;;;;5035763;28;20057;-58
2023/02/20 02:01:48;;;;;;;6.25;2.58;;;;;;;;;;5044201;28;20055;-53
2023/02/20 02:04:16;;;;;;;4.95;2.72;;;;;;;;;;5055315;28;20044;-56
2023/02/20 02:06:49;;;;;;;5.22;2.22;;;;;;;;;;5055545;28;20049;-55
2023/02/20 02:09:26;;;;;;;6.75;2.60;;;;;;;;;;5055282;28;20080;-57
2023/02/20 02:11:55;;;;;;;5.55;2.92;;;;;;;;;;5055223;28;20095;-54
2023/02/20 02:14:22;;;;;;;5.55;2.70;;;;;;;;;;5055004;28;20045;-57
2023/02/20 02:16:58;;;;;;;4.95;2.33;;;;;;;;;;5055200;28;20048;-56
2023/02/20 02:20:04;;;;;;;6.35;2.75;;;;;;;;;;5055244;28;20091;-55
2023/02/20 02:22:59;;;;;;;5.97;2.55;;;;;;;;;;5013667;28;20056;-56
2023/02/20 02:25:38;;;;;;;7.18;3.15;;;;;;;;;;5035181;28;20087;-53
2023/02/20 02:28:26;;;;;;;6.22;2.60;;;;;;;;;;5035126;28;20053;-56
2023/02/20 02:31:40;;;;;;;5.28;2.42;;;;;;;;;;5035062;28;20053;-57
2023/02/20 02:34:32;;;;;;;6.95;2.60;;;;;;;;;;5015238;28;20060;-52
2023/02/20 02:37:12;;;;;;;8.45;3.15;;;;;;;;;;5015096;28;20050;-57
2023/02/20 02:39:46;;;;;;;5.30;2.60;;;;;;;;;;5014984;28;20042;-54
2023/02/20 02:42:24;;;;;;;5.80;2.90;;;;;;;;;;5015074;28;20100;-56
2023/02/20 02:44:55;;;;;;;7.05;2.63;;;;;;;;;;5014462;28;20104;-56
2023/02/20 02:47:31;;;;;;;6.53;2.92;;;;;;;;;;5015095;28;20565;-56
2023/02/20 02:50:02;;;;;;;6.30;3.13;;;;;;;;;;5014890;28;20053;-55
2023/02/20 02:52:47;;;;;;;;;;;;;;;;;;5015192;28;20054;-54
2023/02/20 02:55:16;;;;;;;6.75;3.05;;;;;;;;;;5014886;28;19928;-57
2023/02/20 02:57:43;;;;;;;6.97;3.33;;;;;;;;;;5014884;28;20096;-54
2023/02/20 03:00:14;;;;;;;7.47;2.70;;;;;;;;;;5014502;28;20522;-55
2023/02/20 03:02:47;;;;;;;6.55;3.65;;;;;;;;;;5014872;28;20053;-55
2023/02/20 03:05:19;;;;;;;5.75;3.08;;;;;;;;;;5014654;28;20054;-57
2023/02/20 03:07:51;;;;;;;5.00;2.75;;;;;;;;;;5014480;28;20112;-53
2023/02/20 03:10:30;;;;;;;8.60;3.45;;;;;;;;;;5014501;28;20060;-54
2023/02/20 03:13:02;;;;;;;5.68;3.13;;;;;;;;;;5014442;28;20410;-53
2023/02/20 03:15:34;;;;;;;7.10;3.17;;;;;;;;;;5014564;28;20049;-53
2023/02/20 03:18:23;;;;;;;6.20;3.05;;;;;;;;;;5014570;28;20050;-51
2023/02/20 03:20:54;;;;;;;7.43;3.42;;;;;;;;;;5014302;28;20042;-52
2023/02/20 03:23:25;;;;;;;5.95;2.92;;;;;;;;;;5014074;28;20061;-52
2023/02/20 03:25:56;;;;;;;8.02;3.40;;;;;;;;;;5014519;28;20549;-52
2023/02/20 03:28:25;;;;;;;7.43;3.47;;;;;;;;;;5014114;28;20050;-53
2023/02/20 03:30:58;;;;;;;8.52;3.53;;;;;;;;;;5013930;28;20578;-52
2023/02/20 03:44:45;;;;;;;8.25;3.42;;;;;;;;;;5053784;28;20575;-54
2023/02/20 03:47:15;;;;;;;6.38;3.17;;;;;;;;;;5053683;28;20057;-57
2023/02/20 03:49:50;;;;;;;5.88;3.00;;;;;;;;;;5053428;28;20457;-54
2023/02/20 03:52:16;;;;;;;7.05;3.00;;;;;;;;;;5053428;28;20045;-54
2023/02/20 03:54:45;;;;;;;6.82;3.05;;;;;;;;;;5053249;28;20091;-55
2023/02/20 03:57:18;;;;;;;7.68;3.28;;;;;;;;;;5052492;28;20464;-54
2023/02/20 03:59:49;;;;;;;6.35;3.45;;;;;;;;;;5053309;28;20056;-56
2023/02/20 04:02:21;;;;;;;6.47;3.42;;;;;;;;;;5053250;28;20053;-53
2023/02/20 04:04:51;;;;;;;5.93;3.30;;;;;;;;;;5053342;28;20501;-55
2023/02/20 04:07:24;;;;;;;9.13;4.10;;;;;;;;;;5053308;28;20112;-58
2023/02/20 04:09:55;;;;;;;6.50;3.47;;;;;;;;;;5053119;28;20413;-53
2023/02/20 04:12:25;;;;;;;6.30;3.35;;;;;;;;;;5053275;28;20126;-56
2023/02/20 04:14:53;;;;;;;6.35;3.10;;;;;;;;;;5052855;28;20486;-57
2023/02/20 04:17:25;;;;;;;8.27;3.15;;;;;;;;;;5053071;28;20045;-52
2023/02/20 04:19:52;;;;;;;7.40;3.30;;;;;;;;;;5052940;28;20140;-52
2023/02/20 04:22:23;;;;;;;6.80;3.40;;;;;;;;;;5053100;28;20045;-55
2023/02/20 04:24:55;;;;;;;8.50;2.92;;;;;;;;;;5052798;28;20045;-52
2023/02/20 04:27:23;;;;;;;5.60;3.13;;;;;;;;;;5040893;28;20053;-56
2023/02/20 04:29:50;;;;;;;7.25;3.13;;;;;;;;;;5044625;28;20049;-53
2023/02/20 04:32:17;;;;;;;7.97;4.05;;;;;;;;;;5038507;28;20411;-57
2023/02/20 04:34:44;;;;;;;6.85;3.55;;;;;;;;;;5032532;28;20052;-53
2023/02/20 04:37:14;;;;;;;7.35;3.30;;;;;;;;;;5032587;28;20450;-52
2023/02/20 04:39:41;;;;;;;8.00;3.55;;;;;;;;;;5033225;28;20054;-57
2023/02/20 04:42:09;;;;;;;6.00;3.35;;;;;;;;;;5032508;28;20183;-52
2023/02/20 04:44:36;;;;;;;8.35;3.42;;;;;;;;;;5032850;28;20049;-55
2023/02/20 04:47:05;;;;;;;8.77;3.42;;;;;;;;;;5032664;28;20056;-53
2023/02/20 04:49:32;;;;;;;9.00;3.53;;;;;;;;;;5032545;28;20041;-52
2023/02/20 04:52:00;;;;;;;8.13;4.05;;;;;;;;;;5032487;28;20045;-58
2023/02/20 04:54:27;;;;;;;7.57;3.38;;;;;;;;;;5034819;28;20525;-53
2023/02/20 04:56:54;;;;;;;7.88;3.85;;;;;;;;;;5052205;28;20489;-57
2023/02/20 04:59:22;;;;;;;7.07;3.22;;;;;;;;;;5052594;28;20118;-56
2023/02/20 05:01:50;;;;;;;8.35;3.55;;;;;;;;;;5052222;28;20110;-56
2023/02/20 05:04:18;;;;;;;8.25;3.85;;;;;;;;;;5052324;28;20052;-54
2023/02/20 05:06:48;;;;;;;9.20;4.50;;;;;;;;;;5052039;28;20049;-55
2023/02/20 05:09:15;;;;;;;7.43;3.63;;;;;;;;;;5038280;28;20041;-51
2023/02/20 05:11:42;;;;;;;7.18;3.20;;;;;;;;;;5050548;28;20460;-55
2023/02/20 05:14:09;;;;;;;9.52;3.17;;;;;;;;;;5051973;28;20102;-56
2023/02/20 05:16:39;;;;;;;6.57;3.50;;;;;;;;;;5033882;28;20052;-55
2023/02/20 05:19:06;;;;;;;7.47;3.58;;;;;;;;;;5039717;28;20053;-55
2023/02/20 05:24:17;;;;;;;7.15;3.70;;;;;;;;;;5032026;28;20064;-55
2023/02/20 05:26:44;;;;;;;8.50;3.53;;;;;;;;;;5049068;28;20398;-53
2023/02/20 05:29:12;;;;;;;7.30;3.45;;;;;;;;;;5043337;28;20490;-52
2023/02/20 05:31:41;;;;;;;7.78;3.15;;;;;;;;;;5035172;28;20060;-55
2023/02/20 05:34:08;;;;;;;7.00;3.80;;;;;;;;;;5031629;28;20056;-55
2023/02/20 05:36:35;;;;;;;7.95;4.65;;;;;;;;;;5045886;28;20049;-55
2023/02/20 05:39:01;;;;;;;7.75;3.65;;;;;;;;;;5043511;28;20399;-56
2023/02/20 05:41:28;;;;;;;7.97;3.90;;;;;;;;;;5038287;28;20049;-55
2023/02/20 05:43:56;;;;;;;7.93;5.05;;;;;;;;;;5038480;28;20494;-56
2023/02/20 05:46:23;;;;;;;7.85;3.70;;;;;;;;;;5051328;28;20136;-56
2023/02/20 05:48:53;;;;;;;6.05;3.70;;;;;;;;;;5049017;28;20052;-56
2023/02/20 05:51:22;;;;;;;8.13;3.67;;;;;;;;;;5034840;28;20042;-51
2023/02/20 05:53:49;;;;;;;8.15;3.67;;;;;;;;;;5035919;28;20045;-53
2023/02/20 05:56:16;;;;;;;9.00;4.25;;;;;;;;;;5051323;28;20041;-53
2023/02/20 05:58:43;;;;;;;6.35;3.10;;;;;;;;;;5050281;28;20151;-51
2023/02/20 06:01:16;;;;;;;8.20;3.70;;;;;;;;;;5050960;28;20520;-55
2023/02/20 06:03:43;;;;;;;6.25;3.30;;;;;;;;;;5048322;28;20079;-55
2023/02/20 06:06:11;;;;;;;9.10;3.78;;;;;;;;;;5041247;28;20053;-54
2023/02/20 06:08:39;;;;;;;9.50;3.70;;;;;;;;;;5050792;28;20056;-55
2023/02/20 06:11:06;;;;;;;10.35;3.95;;;;;;;;;;5033707;28;20049;-55
2023/02/20 06:13:33;;;;;;;8.80;3.55;;;;;;;;;;5031033;28;20523;-51
2023/02/20 06:15:59;;;;;;;9.57;3.83;;;;;;;;;;5019445;28;20100;-55
2023/02/20 06:18:26;;;;;;;7.47;3.33;;;;;;;;;;5031325;28;20487;-52
2023/02/20 06:20:53;;;;;;;9.77;3.88;;;;;;;;;;5041696;28;20041;-54
2023/02/20 06:23:21;;;;;;;9.75;4.00;;;;;;;;;;5034569;28;20041;-54
2023/02/20 06:25:48;;;;;;;7.28;3.40;;;;;;;;;;5051736;28;20044;-55
2023/02/20 06:28:15;;;;;;;7.13;3.80;;;;;;;;;;5054505;28;20102;-55
2023/02/20 06:30:42;;;;;;;7.85;3.25;;;;;;;;;;5042688;28;20057;-55
2023/02/20 06:33:09;;;;;;;7.70;3.63;;;;;;;;;;5054548;28;20056;-52
2023/02/20 06:35:35;;;;;;;9.40;4.05;;;;;;;;;;5040467;28;20052;-55
2023/02/20 06:38:02;;;;;;;7.40;3.35;;;;;;;;;;5042500;28;20041;-57
2023/02/20 06:40:30;;;;;;;9.48;3.97;;;;;;;;;;5051604;28;20053;-55
2023/02/20 06:42:57;;;;;;;8.52;3.70;;;;;;;;;;5048171;28;20100;-56
2023/02/20 06:45:24;;;;;;;6.95;3.78;;;;;;;;;;5054637;28;20053;-51
2023/02/20 06:47:51;;;;;;;8.75;3.83;;;;;;;;;;5049098;28;20494;-55
2023/02/20 06:50:18;;;;;;;9.93;4.30;;;;;;;;;;5034629;28;20057;-54
2023/02/20 06:52:45;;;;;;;11.20;4.20;;;;;;;;;;5044800;28;20051;-55
2023/02/20 06:55:12;;;;;;;9.10;3.60;;;;;;;;;;5038762;28;20049;-55
2023/02/20 06:57:40;;;;;;;10.15;4.00;;;;;;;;;;5036104;28;20057;-55
2023/02/20 07:00:08;;;;;;;9.07;3.95;;;;;;;;;;5040997;28;20164;-54
2023/02/20 07:02:35;;;;;;;7.95;3.38;;;;;;;;;;5035896;28;20131;-55
2023/02/20 07:05:03;;;;;;;7.40;3.25;;;;;;;;;;5035356;28;20060;-55
2023/02/20 07:07:29;;;;;;;7.47;3.72;;;;;;;;;;5053338;28;20057;-55
2023/02/20 07:09:58;;;;;;;6.97;3.40;;;;;;;;;;5050464;28;20049;-55
2023/02/20 07:12:25;;;;;;;7.38;4.07;;;;;;;;;;5038942;28;20077;-55
2023/02/20 07:14:53;;;;;;;8.00;4.30;;;;;;;;;;5054051;28;20054;-54
2023/02/20 07:17:20;;;;;;;8.68;3.28;;;;;;;;;;5040861;28;20049;-52
2023/02/20 07:19:47;;;;;;;9.02;3.72;;;;;;;;;;5053782;28;20060;-54
2023/02/20 07:22:14;;;;;;;10.13;3.95;;;;;;;;;;5049245;28;20087;-56
2023/02/20 07:24:41;;;;;;;9.35;4.70;;;;;;;;;;5053663;28;20049;-55
2023/02/20 07:27:09;;;;;;;7.97;3.35;;;;;;;;;;5045600;28;20076;-50
2023/02/20 07:29:36;;;;;;;9.65;3.88;;;;;;;;;;5034409;28;20148;-56
2023/02/20 07:32:04;;;;;;;11.45;4.47;;;;;;;;;;5038812;28;20041;-51
2023/02/20 07:34:31;;;;;;;7.53;3.40;;;;;;;;;;5033793;28;20056;-54
2023/02/20 07:36:58;;;;;;;11.32;4.40;;;;;;;;;;5039765;28;20501;-57
2023/02/20 07:39:26;;;;;;;8.52;3.83;;;;;;;;;;5053615;28;20060;-54
2023/02/20 07:41:52;;;;;;;12.23;4.90;;;;;;;;;;5048795;28;20049;-56
2023/02/20 07:44:19;;;;;;;7.18;3.90;;;;;;;;;;5040018;28;20049;-55
2023/02/20 07:46:46;;;;;;;7.72;4.18;;;;;;;;;;5042606;28;20049;-53
2023/02/20 07:49:15;;;;;;;9.18;4.75;;;;;;;;;;5053471;28;20490;-55
2023/02/20 07:51:42;;;;;;;7.20;3.55;;;;;;;;;;5050174;28;20068;-56
2023/02/20 07:54:08;;;;;;;10.13;4.07;;;;;;;;;;5034783;28;20041;-54
2023/02/20 07:56:35;;;;;;;7.90;3.50;;;;;;;;;;5033972;28;20049;-56
2023/02/20 07:59:02;;;;;;;9.95;4.38;;;;;;;;;;5053408;28;20052;-55
2023/02/20 08:01:29;;;;;;;9.52;3.85;;;;;;;;;;5053384;28;20061;-56
2023/02/20 08:03:56;;;;;;;8.32;3.97;;;;;;;;;;5041894;28;20049;-54
2023/02/20 08:06:24;;;;;;;9.93;4.75;;;;;;;;;;5045018;28;20110;-51
2023/02/20 08:08:51;;;;;;;7.90;3.75;;;;;;;;;;5045749;28;20046;-56
2023/02/20 08:11:19;;;;;;;8.50;3.55;;;;;;;;;;5031420;28;20049;-57
2023/02/20 08:13:46;;;;;;;13.95;3.83;;;;;;;;;;5034849;28;20041;-54
2023/02/20 08:16:13;;;;;;;11.73;4.18;;;;;;;;;;5037379;28;20376;-53
2023/02/20 08:18:40;;;;;;;8.15;3.65;;;;;;;;;;5038123;28;20049;-56
2023/02/20 08:21:07;;;;;;;9.48;4.07;;;;;;;;;;5034496;28;20041;-55
2023/02/20 08:23:35;;;;;;;8.50;4.00;;;;;;;;;;5049607;28;20048;-56
2023/02/20 08:26:03;;;;;;;8.32;4.05;;;;;;;;;;5044403;28;20053;-54
2023/02/20 08:28:30;;;;;;;10.27;4.20;;;;;;;;;;5038520;28;20045;-55
2023/02/20 08:30:57;;;;;;;11.40;4.03;;;;;;;;;;5037469;28;20171;-55
2023/02/20 08:33:24;;;;;;;10.63;3.88;;;;;;;;;;5044380;28;20048;-54
2023/02/20 08:35:52;;;;;;;7.30;3.60;;;;;;;;;;5044933;28;20445;-55
2023/02/20 08:38:25;;;;;;;9.23;4.10;;;;;;;;;;5031680;28;20046;-54
2023/02/20 08:40:53;;;;;;;8.77;4.38;;;;;;;;;;5030596;28;20041;-54
2023/02/20 08:43:20;;;;;;;9.10;3.72;;;;;;;;;;5035951;28;20045;-54
2023/02/20 08:45:47;;;;;;;7.50;3.38;;;;;;;;;;5035164;28;20045;-55
2023/02/20 08:48:14;;;;;;;7.30;3.55;;;;;;;;;;5048608;28;20064;-55
2023/02/20 08:50:41;;;;;;;11.18;4.07;;;;;;;;;;5042030;28;20041;-54
2023/02/20 08:53:08;;;;;;;9.38;4.15;;;;;;;;;;5021450;28;20049;-49
2023/02/20 08:55:35;;;;;;;7.65;3.20;;;;;;;;;;5031067;28;20050;-51
2023/02/20 08:58:06;;;;;;;8.45;3.80;;;;;;;;;;5039175;28;20530;-54
2023/02/20 09:00:33;;;;;;;6.15;3.25;;;;;;;;;;5032108;28;20045;-54
2023/02/20 09:03:00;;;;;;;10.90;3.92;;;;;;;;;;5030454;28;20049;-53
2023/02/20 09:05:27;;;;;;;10.40;4.20;;;;;;;;;;5034393;28;20068;-52
2023/02/20 09:07:54;;;;;;;7.68;3.35;;;;;;;;;;5049820;28;20053;-53
2023/02/20 09:10:21;;;;;;;7.35;3.22;;;;;;;;;;5050368;28;20044;-56
2023/02/20 09:12:48;;;;;;;7.38;3.67;;;;;;;;;;5050244;28;20063;-55
2023/02/20 09:15:17;;;;;;;7.65;3.65;;;;;;;;;;5050148;28;20098;-53
2023/02/20 09:17:45;;;;;;;6.30;3.65;;;;;;;;;;5031369;28;20655;-52
2023/02/20 09:20:14;;;;;;;9.35;3.78;;;;;;;;;;5030256;28;20115;-56
2023/02/20 09:22:41;;;;;;;7.05;3.55;;;;;;;;;;5030294;28;20080;-53
2023/02/20 09:25:08;;;;;;;8.18;3.58;;;;;;;;;;5030358;28;20410;-54
2023/02/20 09:27:35;;;;;;;8.20;3.60;;;;;;;;;;5030203;28;20050;-55
2023/02/20 09:30:02;;;;;;;9.63;3.72;;;;;;;;;;5030205;28;20041;-56
2023/02/20 09:32:30;;;;;;;7.72;3.33;;;;;;;;;;5030291;28;20046;-54
2023/02/20 09:34:57;;;;;;;6.10;3.42;;;;;;;;;;5029998;28;20052;-56
2023/02/20 09:37:24;;;;;;;6.68;3.42;;;;;;;;;;5030041;28;20049;-55
2023/02/20 09:39:51;;;;;;;6.57;3.20;;;;;;;;;;5028662;28;20046;-62
2023/02/20 09:42:29;;;;;;;7.15;3.65;;;;;;;;;;5029962;28;20065;-67
2023/02/20 09:45:06;;;;;;;7.03;3.25;;;;;;;;;;5031040;28;20403;-65
2023/02/20 09:47:47;;;;;;;7.90;3.80;;;;;;;;;;5029859;28;20046;-57
2023/02/20 09:50:18;;;;;;;7.03;3.13;;;;;;;;;;5035243;28;20037;-52
2023/02/20 09:52:59;;;;;;;8.30;4.10;;;;;;;;;;5049590;28;20053;-63
2023/02/20 09:55:33;;;;;;;8.60;3.40;;;;;;;;;;5046282;28;20041;-54
2023/02/20 09:58:01;;;;;;;7.13;3.40;;;;;;;;;;5051134;28;20770;-69
2023/02/20 10:00:32;;;;;;;7.78;3.72;;;;;;;;;;5037762;28;20079;-54
2023/02/20 10:03:14;;;;;;;10.15;3.25;;;;;;;;;;5037055;28;20083;-54
2023/02/20 10:05:43;;;;;;;7.82;3.22;;;;;;;;;;5053000;28;20136;-52
2023/02/20 10:08:10;;;;;;;7.72;3.55;;;;;;;;;;5053398;28;20060;-53
2023/02/20 10:10:38;;;;;;;8.02;3.33;;;;;;;;;;5045049;28;20115;-56
2023/02/20 10:13:19;;;;;;;6.50;3.30;;;;;;;;;;5033377;28;20053;-54
2023/02/20 10:15:54;;;;;;;7.82;3.92;;;;;;;;;;5039593;28;20052;-59
2023/02/20 10:18:34;;;;;;;7.35;3.13;;;;;;;;;;5039066;28;20542;-52
2023/02/20 10:21:07;;;;;;;6.10;3.15;;;;;;;;;;5053538;28;20045;-54
2023/02/20 10:23:42;;;;;;;5.85;2.95;;;;;;;;;;5053380;28;20201;-58
2023/02/20 10:26:13;;;;;;;7.65;4.15;;;;;;;;;;5053223;28;20041;-58
2023/02/20 10:28:40;;;;;;;7.15;3.28;;;;;;;;;;5053396;28;20572;-55
2023/02/20 10:31:24;;;;;;;7.70;3.55;;;;;;;;;;5053339;28;20465;-55
2023/02/20 10:33:59;;;;;;;8.25;3.65;;;;;;;;;;5053487;28;20102;-58
2023/02/20 10:36:30;;;;;;;7.20;3.08;;;;;;;;;;5053464;28;20049;-56
2023/02/20 10:39:02;;;;;;;5.60;2.92;;;;;;;;;;5035288;28;20391;-55
2023/02/20 10:41:33;;;;;;;5.78;2.78;;;;;;;;;;5033341;28;20526;-53
2023/02/20 10:44:07;;;;;;;7.70;2.80;;;;;;;;;;5033504;28;20049;-55
2023/02/20 10:46:44;;;;;;;7.25;3.60;;;;;;;;;;5033171;28;20172;-56
2023/02/20 10:49:22;;;;;;;8.18;3.10;;;;;;;;;;5013229;28;20140;-59
2023/02/20 10:51:51;;;;;;;7.47;3.17;;;;;;;;;;5013135;28;20060;-57
2023/02/20 10:54:23;;;;;;;5.75;3.20;;;;;;;;;;5013526;28;20050;-57
2023/02/20 10:56:57;;;;;;;5.22;2.67;;;;;;;;;;5012988;28;20050;-54
2023/02/20 10:59:29;;;;;;;6.00;3.00;;;;;;;;;;5013234;28;20061;-55
2023/02/20 11:01:59;;;;;;;8.68;3.45;;;;;;;;;;5013123;28;20054;-55
2023/02/20 11:04:32;;;;;;;7.13;2.75;;;;;;;;;;5013068;28;20057;-57
2023/02/20 11:07:01;;;;;;;9.35;3.35;;;;;;;;;;5012629;28;20410;-54
2023/02/20 11:09:28;;;;;;;7.53;3.28;;;;;;;;;;5012702;28;20073;-52
2023/02/20 11:11:56;;;;;;;7.53;3.20;;;;;;;;;;5024044;28;20049;-54
2023/02/20 11:14:30;;;;;;;7.18;2.83;;;;;;;;;;5032613;28;20095;-57
2023/02/20 11:17:00;;;;;;;6.15;2.88;;;;;;;;;;5032517;28;20045;-57
2023/02/20 11:19:34;;;;;;;7.40;3.63;;;;;;;;;;5032401;28;20075;-55
2023/02/20 11:22:01;;;;;;;6.43;3.10;;;;;;;;;;5032369;28;20076;-56
2023/02/20 11:24:31;;;;;;;9.98;4.13;;;;;;;;;;5032130;28;20391;-56
2023/02/20 11:27:02;;;;;;;6.63;2.92;;;;;;;;;;5041539;28;20052;-54
2023/02/20 11:29:36;;;;;;;6.10;3.10;;;;;;;;;;5052204;28;20053;-53
2023/02/20 11:32:25;;;;;;;7.20;3.13;;;;;;;;;;5031787;28;20045;-54
2023/02/20 11:35:25;;;;;;;4.90;2.75;;;;;;;;;;5034833;28;20118;-56
2023/02/20 11:38:27;;;;;;;6.53;2.85;;;;;;;;;;5052105;28;20087;-52
2023/02/20 11:41:21;;;;;;;4.90;3.35;;;;;;;;;;5049109;28;20364;-51
2023/02/20 11:43:48;;;;;;;5.70;2.60;;;;;;;;;;5048729;28;20474;-54
2023/02/20 11:46:18;;;;;;;6.82;2.40;;;;;;;;;;5051806;28;20135;-57
2023/02/20 11:49:01;;;;;;;6.70;3.05;;;;;;;;;;5051588;28;20143;-55
2023/02/20 11:51:35;;;;;;;7.65;2.45;;;;;;;;;;5051590;28;20053;-52
2023/02/20 11:54:15;;;;;;;5.63;2.10;;;;;;;;;;5051638;28;20480;-52
2023/02/20 11:56:55;;;;;;;5.37;2.50;;;;;;;;;;5043360;28;20052;-51
2023/02/20 11:59:37;;;;;;;6.63;2.67;;;;;;;;;;5031346;28;20368;-55
2023/02/20 12:02:25;;;;;;;8.18;3.20;;;;;;;;;;5031278;28;20057;-54
2023/02/20 12:05:10;;;;;;;7.28;2.60;;;;;;;;;;5067864;22;20123;-77
2023/02/20 12:07:44;;;;;;;6.65;2.58;;;;;;;;;;5031026;28;20077;-77
2023/02/20 12:10:40;;;;;;;7.55;3.13;;;;;;;;;;5050828;28;20045;-76
2023/02/20 12:13:15;;;;;;;7.57;2.75;;;;;;;;;;5008123;28;20045;-76
2023/02/20 12:15:44;;;;;;;6.07;2.70;;;;;;;;;;5064278;28;21805;-76
2023/02/20 12:18:35;;;;;;;6.60;2.63;;;;;;;;;;5065886;28;20102;-77
2023/02/20 12:21:12;;;;;;;8.35;3.60;;;;;;;;;;5061691;28;20044;-76
2023/02/20 12:23:56;;;;;;;4.88;2.70;;;;;;;;;;5053445;28;20187;-76
2023/02/20 12:26:34;;;;;;;5.25;2.58;;;;;;;;;;5044084;28;20075;-76
2023/02/20 12:29:12;;;;;;;6.40;2.63;;;;;;;;;;5053836;28;20111;-75
2023/02/20 12:31:54;;;;;;;6.10;2.65;;;;;;;;;;5069471;28;20240;-76
2023/02/20 12:34:48;;;;;;;5.47;2.38;;;;;;;;;;5051230;28;20057;-76
2023/02/20 12:37:24;;;;;;;6.38;2.65;;;;;;;;;;5057199;28;20133;-77
2023/02/20 12:40:10;;;;;;;7.57;2.95;;;;;;;;;;5071604;28;20058;-76
2023/02/20 12:42:47;;;;;;;6.18;2.53;;;;;;;;;;5064022;28;20045;-76
2023/02/20 12:45:23;;;;;;;6.97;2.35;;;;;;;;;;5050721;28;20476;-75
2023/02/20 12:47:57;;;;;;;6.72;2.72;;;;;;;;;;5066558;28;20048;-75
2023/02/20 12:50:40;;;;;;;5.22;2.50;;;;;;;;;;5063425;28;20699;-79
2023/02/20 12:53:30;;;;;;;5.80;2.90;;;;;;;;;;5064855;28;20050;-77
2023/02/20 12:56:17;;;;;;;5.57;2.90;;;;;;;;;;5056999;28;20103;-78
2023/02/20 12:58:56;;;;;;;6.35;2.75;;;;;;;;;;5059370;28;20158;-78
2023/02/20 13:01:24;;;;;;;7.75;2.90;;;;;;;;;;5040422;28;20092;-76
2023/02/20 13:04:00;;;;;;;5.10;2.78;;;;;;;;;;5048388;28;20068;-78
2023/02/20 13:06:32;;;;;;;6.75;2.33;;;;;;;;;;5051261;28;20065;-76
2023/02/20 13:09:16;;;;;;;5.20;2.28;;;;;;;;;;5056500;28;20558;-76
2023/02/20 13:11:48;;;;;;;5.30;2.75;;;;;;;;;;5032503;28;20129;-75
2023/02/20 13:14:33;;;;;;;5.43;2.33;;;;;;;;;;5068315;28;20131;-75
2023/02/20 13:17:12;;;;;;;5.13;2.20;;;;;;;;;;5069613;28;20050;-75
2023/02/20 13:19:50;;;;;;;5.25;2.55;;;;;;;;;;5030095;28;20140;-77
2023/02/20 13:22:17;;;;;;;6.05;2.50;;;;;;;;;;5048569;28;20041;-75
2023/02/20 13:24:45;;;;;;;6.28;2.33;;;;;;;;;;5069529;28;20507;-76
2023/02/20 13:27:28;;;;;;;4.13;2.17;;;;;;;;;;5070349;28;20051;-76
2023/02/20 13:29:59;;;;;;;4.50;2.40;;;;;;;;;;5068074;28;20059;-77
2023/02/20 13:32:31;;;;;;;5.60;2.10;;;;;;;;;;5068655;28;20049;-75
2023/02/20 13:35:32;;;;;;;9.23;2.50;;;;;;;;;;5049424;28;20049;-77
2023/02/20 13:38:10;;;;;;;8.63;3.08;;;;;;;;;;5052965;28;20057;-76
2023/02/20 13:40:44;;;;;;;6.40;2.08;;;;;;;;;;5067616;28;20045;-77
2023/02/20 13:43:32;;;;;;;8.77;2.20;;;;;;;;;;5050434;28;20061;-75
2023/02/20 13:46:16;;;;;;;5.28;2.30;;;;;;;;;;5048544;28;20053;-77
2023/02/20 13:48:45;;;;;;;4.63;1.98;;;;;;;;;;5054448;28;20072;-77
2023/02/20 13:51:45;;;;;;;4.40;1.95;;;;;;;;;;5056052;28;20907;-77
2023/02/20 13:54:26;;;;;;;4.22;2.25;;;;;;;;;;5069192;28;20595;-76
2023/02/20 13:56:55;;;;;;;;;;;;;;;;;;5070057;28;20124;-76
2023/02/20 13:59:23;;;;;;;5.05;2.15;;;;;;;;;;5050786;28;19924;-77
2023/02/20 14:01:55;;;;;;;4.00;1.95;;;;;;;;;;5060719;28;20509;-75
2023/02/20 14:04:23;;;;;;;3.80;2.20;;;;;;;;;;5069015;28;20075;-75
2023/02/20 14:06:50;;;;;;;4.07;1.60;;;;;;;;;;5053890;28;20525;-77
2023/02/20 14:09:22;;;;;;;3.33;1.50;;;;;;;;;;5049573;28;20071;-76
2023/02/20 14:11:51;;;;;;;3.83;1.50;;;;;;;;;;5050829;28;20126;-77
2023/02/20 14:14:27;;;;;;;5.13;1.70;;;;;;;;;;5064784;28;20072;-76
2023/02/20 14:17:04;;;;;;;5.75;1.55;;;;;;;;;;5041498;28;20132;-76
2023/02/20 14:19:31;;;;;;;3.95;1.50;;;;;;;;;;5054707;28;20554;-76
2023/02/20 14:22:14;;;;;;;3.72;1.48;;;;;;;;;;5048957;28;20047;-76
2023/02/20 14:24:40;;;;;;;6.63;2.15;;;;;;;;;;5048593;28;20049;-76
2023/02/20 14:27:25;;;;;;;3.17;1.10;;;;;;;;;;5049347;28;20127;-76
2023/02/20 14:30:07;;;;;;;5.50;1.42;;;;;;;;;;5050865;28;20114;-76
2023/02/20 14:32:42;;;;;;;2.53;1.05;;;;;;;;;;5042247;28;20045;-77
2023/02/20 14:35:22;;;;;;;3.25;1.30;;;;;;;;;;5054706;28;20052;-78
2023/02/20 14:37:55;;;;;;;3.15;1.10;;;;;;;;;;5059603;28;20392;-77
2023/02/20 14:40:33;;;;;;;3.15;1.35;;;;;;;;;;5050887;28;20132;-77
2023/02/20 14:43:01;;;;;;;2.78;1.30;;;;;;;;;;5055504;28;20055;-76
2023/02/20 14:45:31;;;;;;;3.47;1.17;;;;;;;;;;5061741;28;20102;-77
2023/02/20 14:48:07;;;;;;;4.95;1.40;;;;;;;;;;5054085;28;20073;-77
2023/02/20 14:50:35;;;;;;;3.72;1.20;;;;;;;;;;5050636;28;20056;-76
2023/02/20 14:53:06;;;;;;;3.75;1.10;;;;;;;;;;5069637;28;20053;-78
2023/02/20 14:55:33;;;;;;;2.50;1.00;;;;;;;;;;5077160;28;20557;-80
2023/02/20 14:58:05;;;;;;;4.78;1.10;;;;;;;;;;5065114;28;20101;-78
2023/02/20 15:00:35;;;;;;;3.90;1.20;;;;;;;;;;5063606;28;20123;-76
2023/02/20 15:03:09;;;;;;;3.47;1.23;;;;;;;;;;5056792;28;20063;-75
2023/02/20 15:05:37;;;;;;;3.65;1.15;;;;;;;;;;5053262;28;20515;-75
2023/02/20 15:08:19;;;;;;;3.75;1.95;;;;;;;;;;5070366;28;20049;-75
2023/02/20 15:10:48;;;;;;;6.22;2.05;;;;;;;;;;5052030;28;20044;-74
2023/02/20 15:13:17;;;;;;;2.55;1.30;;;;;;;;;;5054922;28;20507;-75
2023/02/20 15:15:48;;;;;;;4.40;1.15;;;;;;;;;;5053437;28;20151;-75
2023/02/20 15:18:33;;;;;;;3.67;1.33;;;;;;;;;;5060110;28;20152;-75
2023/02/20 15:21:00;;;;;;;2.97;1.17;;;;;;;;;;5053713;28;20044;-75
2023/02/20 15:23:29;;;;;;;2.45;1.02;;;;;;;;;;5067063;28;20041;-74